sensor_id;sensor_type;location;lat;lon;timestamp;pressure;altitude;pressure_sealevel;temperature;humidity
27144;BME280;14672;50.250;8.312;2023-10-09T00:01:53;99392.78;;;16.48;75.18
27144;BME280;14672;50.250;8.312;2023-10-09T00:04:19;99388.59;;;16.49;75.52
27144;BME280;14672;50.250;8.312;2023-10-09T00:06:46;99389.72;;;16.52;75.38
27144;BME280;14672;50.250;8.312;2023-10-09T00:09:12;99389.41;;;16.50;75.05
27144;BME280;14672;50.250;8.312;2023-10-09T00:11:58;99390.03;;;16.54;75.75
27144;BME280;14672;50.250;8.312;2023-10-09T00:14:29;99385.72;;;16.58;75.37
27144;BME280;14672;50.250;8.312;2023-10-09T00:17:06;99392.41;;;16.55;74.89
27144;BME280;14672;50.250;8.312;2023-10-09T00:19:37;99381.91;;;16.52;75.27
27144;BME280;14672;50.250;8.312;2023-10-09T00:22:03;99379.00;;;16.61;74.78
27144;BME280;14672;50.250;8.312;2023-10-09T00:24:33;99389.06;;;16.57;75.30
27144;BME280;14672;50.250;8.312;2023-10-09T00:26:59;99370.09;;;16.59;75.63
27144;BME280;14672;50.250;8.312;2023-10-09T00:29:39;99375.47;;;16.66;75.16
27144;BME280;14672;50.250;8.312;2023-10-09T00:32:11;99365.16;;;16.60;74.58
27144;BME280;14672;50.250;8.312;2023-10-09T00:34:53;99369.66;;;16.52;74.97
27144;BME280;14672;50.250;8.312;2023-10-09T00:37:23;99361.66;;;16.56;75.32
27144;BME280;14672;50.250;8.312;2023-10-09T00:39:51;99362.78;;;16.58;75.25
27144;BME280;14672;50.250;8.312;2023-10-09T00:42:26;99352.44;;;16.52;76.29
27144;BME280;14672;50.250;8.312;2023-10-09T00:45:10;99353.19;;;16.61;74.79
27144;BME280;14672;50.250;8.312;2023-10-09T00:47:41;99341.53;;;16.65;74.65
27144;BME280;14672;50.250;8.312;2023-10-09T00:50:10;99338.47;;;16.68;75.01
27144;BME280;14672;50.250;8.312;2023-10-09T00:52:45;99334.44;;;16.51;75.25
27144;BME280;14672;50.250;8.312;2023-10-09T00:55:20;99324.50;;;16.61;75.20
27144;BME280;14672;50.250;8.312;2023-10-09T00:58:06;99319.41;;;16.56;75.88
27144;BME280;14672;50.250;8.312;2023-10-09T01:00:39;99333.91;;;16.62;75.42
27144;BME280;14672;50.250;8.312;2023-10-09T01:03:17;99329.94;;;16.59;75.07
27144;BME280;14672;50.250;8.312;2023-10-09T01:06:06;99312.84;;;16.65;76.28
27144;BME280;14672;50.250;8.312;2023-10-09T01:08:35;99318.56;;;16.65;75.82
27144;BME280;14672;50.250;8.312;2023-10-09T01:11:14;99316.69;;;16.62;75.27
27144;BME280;14672;50.250;8.312;2023-10-09T01:13:46;99313.03;;;16.61;75.85
27144;BME280;14672;50.250;8.312;2023-10-09T01:16:12;99308.56;;;16.60;76.29
27144;BME280;14672;50.250;8.312;2023-10-09T01:18:55;99302.47;;;16.67;75.12
27144;BME280;14672;50.250;8.312;2023-10-09T01:21:25;99310.66;;;16.60;74.88
27144;BME280;14672;50.250;8.312;2023-10-09T01:23:53;99306.34;;;16.55;75.77
27144;BME280;14672;50.250;8.312;2023-10-09T01:26:33;99312.75;;;16.50;76.07
27144;BME280;14672;50.250;8.312;2023-10-09T01:29:06;99305.88;;;16.57;75.46
27144;BME280;14672;50.250;8.312;2023-10-09T01:31:52;99320.75;;;16.46;76.04
27144;BME280;14672;50.250;8.312;2023-10-09T01:34:34;99308.00;;;16.47;75.83
27144;BME280;14672;50.250;8.312;2023-10-09T01:37:20;99309.56;;;16.57;74.92
27144;BME280;14672;50.250;8.312;2023-10-09T01:39:50;99317.84;;;16.55;75.20
27144;BME280;14672;50.250;8.312;2023-10-09T01:42:20;99314.03;;;16.49;75.23
27144;BME280;14672;50.250;8.312;2023-10-09T01:44:51;99306.13;;;16.44;75.82
27144;BME280;14672;50.250;8.312;2023-10-09T01:47:17;99311.78;;;16.53;75.23
27144;BME280;14672;50.250;8.312;2023-10-09T01:49:47;99321.38;;;16.50;74.56
27144;BME280;14672;50.250;8.312;2023-10-09T01:52:18;99317.28;;;16.42;75.55
27144;BME280;14672;50.250;8.312;2023-10-09T01:54:50;99308.69;;;16.42;75.63
27144;BME280;14672;50.250;8.312;2023-10-09T01:57:20;99312.03;;;16.40;75.52
27144;BME280;14672;50.250;8.312;2023-10-09T01:59:50;99315.50;;;16.44;75.72
27144;BME280;14672;50.250;8.312;2023-10-09T02:02:19;99317.94;;;16.37;75.95
27144;BME280;14672;50.250;8.312;2023-10-09T02:04:53;99306.47;;;16.37;75.81
27144;BME280;14672;50.250;8.312;2023-10-09T02:07:20;99314.22;;;16.45;75.27
27144;BME280;14672;50.250;8.312;2023-10-09T02:09:54;99307.41;;;16.43;75.92
27144;BME280;14672;50.250;8.312;2023-10-09T02:12:20;99310.75;;;16.41;76.01
27144;BME280;14672;50.250;8.312;2023-10-09T02:14:47;99307.69;;;16.45;75.27
27144;BME280;14672;50.250;8.312;2023-10-09T02:17:13;99308.06;;;16.38;76.05
27144;BME280;14672;50.250;8.312;2023-10-09T02:19:46;99305.34;;;16.43;75.89
27144;BME280;14672;50.250;8.312;2023-10-09T02:22:18;99313.44;;;16.45;75.14
27144;BME280;14672;50.250;8.312;2023-10-09T02:24:45;99306.78;;;16.39;75.55
27144;BME280;14672;50.250;8.312;2023-10-09T02:27:17;99299.78;;;16.40;75.97
27144;BME280;14672;50.250;8.312;2023-10-09T02:30:04;99295.41;;;16.44;75.56
27144;BME280;14672;50.250;8.312;2023-10-09T02:32:44;99290.06;;;16.37;75.36
27144;BME280;14672;50.250;8.312;2023-10-09T02:35:13;99289.44;;;16.33;75.38
27144;BME280;14672;50.250;8.312;2023-10-09T02:38:05;99285.78;;;16.33;75.59
27144;BME280;14672;50.250;8.312;2023-10-09T02:40:34;99292.63;;;16.35;75.19
27144;BME280;14672;50.250;8.312;2023-10-09T02:43:10;99288.03;;;16.29;75.14
27144;BME280;14672;50.250;8.312;2023-10-09T02:45:43;99287.84;;;16.32;74.68
27144;BME280;14672;50.250;8.312;2023-10-09T02:48:19;99288.41;;;16.22;75.77
27144;BME280;14672;50.250;8.312;2023-10-09T02:50:46;99288.03;;;16.29;75.76
27144;BME280;14672;50.250;8.312;2023-10-09T02:53:13;99286.16;;;16.26;74.27
27144;BME280;14672;50.250;8.312;2023-10-09T02:55:45;99286.72;;;16.15;74.83
27144;BME280;14672;50.250;8.312;2023-10-09T02:58:30;99281.28;;;16.17;75.21
27144;BME280;14672;50.250;8.312;2023-10-09T03:00:58;99276.34;;;16.18;74.54
27144;BME280;14672;50.250;8.312;2023-10-09T03:03:25;99271.16;;;16.07;75.37
27144;BME280;14672;50.250;8.312;2023-10-09T03:05:51;99266.84;;;16.12;74.82
27144;BME280;14672;50.250;8.312;2023-10-09T03:08:17;99260.69;;;16.04;74.98
27144;BME280;14672;50.250;8.312;2023-10-09T03:10:45;99267.19;;;16.05;75.02
27144;BME280;14672;50.250;8.312;2023-10-09T03:13:11;99253.34;;;16.03;74.14
27144;BME280;14672;50.250;8.312;2023-10-09T03:15:38;99257.31;;;16.06;73.82
27144;BME280;14672;50.250;8.312;2023-10-09T03:18:04;99260.06;;;16.00;74.55
27144;BME280;14672;50.250;8.312;2023-10-09T03:20:33;99259.88;;;16.04;74.55
27144;BME280;14672;50.250;8.312;2023-10-09T03:23:00;99251.63;;;15.96;74.42
27144;BME280;14672;50.250;8.312;2023-10-09T03:25:27;99253.53;;;16.00;75.32
27144;BME280;14672;50.250;8.312;2023-10-09T03:27:53;99262.41;;;16.02;75.79
27144;BME280;14672;50.250;8.312;2023-10-09T03:30:21;99251.63;;;15.96;76.18
27144;BME280;14672;50.250;8.312;2023-10-09T03:32:54;99252.56;;;16.03;75.73
27144;BME280;14672;50.250;8.312;2023-10-09T03:35:23;99252.84;;;16.05;75.91
27144;BME280;14672;50.250;8.312;2023-10-09T03:37:58;99245.84;;;16.06;75.46
27144;BME280;14672;50.250;8.312;2023-10-09T03:40:45;99249.31;;;16.10;76.36
27144;BME280;14672;50.250;8.312;2023-10-09T03:43:14;99253.44;;;16.09;75.72
27144;BME280;14672;50.250;8.312;2023-10-09T03:45:40;99256.94;;;16.13;75.49
27144;BME280;14672;50.250;8.312;2023-10-09T03:48:19;99258.84;;;16.16;76.27
27144;BME280;14672;50.250;8.312;2023-10-09T03:50:58;99259.19;;;16.09;76.24
27144;BME280;14672;50.250;8.312;2023-10-09T03:53:39;99253.59;;;16.14;76.34
27144;BME280;14672;50.250;8.312;2023-10-09T03:56:08;99251.19;;;16.13;76.75
27144;BME280;14672;50.250;8.312;2023-10-09T03:58:46;99251.81;;;16.17;76.69
27144;BME280;14672;50.250;8.312;2023-10-09T04:01:15;99256.94;;;16.13;76.24
27144;BME280;14672;50.250;8.312;2023-10-09T04:03:59;99257.06;;;16.18;76.35
27144;BME280;14672;50.250;8.312;2023-10-09T04:06:29;99261.09;;;16.12;76.92
27144;BME280;14672;50.250;8.312;2023-10-09T04:09:03;99259.31;;;16.14;75.96
27144;BME280;14672;50.250;8.312;2023-10-09T04:11:50;99251.81;;;16.17;75.96
27144;BME280;14672;50.250;8.312;2023-10-09T04:14:34;99254.19;;;16.18;76.14
27144;BME280;14672;50.250;8.312;2023-10-09T04:17:01;99252.41;;;16.21;76.91
27144;BME280;14672;50.250;8.312;2023-10-09T04:19:45;99252.59;;;16.17;76.21
27144;BME280;14672;50.250;8.312;2023-10-09T04:22:16;99249.25;;;16.19;75.92
27144;BME280;14672;50.250;8.312;2023-10-09T04:24:52;99253.41;;;16.18;75.41
27144;BME280;14672;50.250;8.312;2023-10-09T04:27:18;99254.81;;;16.22;75.18
27144;BME280;14672;50.250;8.312;2023-10-09T04:29:52;99252.00;;;16.13;76.13
27144;BME280;14672;50.250;8.312;2023-10-09T04:32:20;99260.91;;;16.15;75.32
27144;BME280;14672;50.250;8.312;2023-10-09T04:34:51;99250.25;;;16.16;75.65
27144;BME280;14672;50.250;8.312;2023-10-09T04:37:37;99253.59;;;16.14;75.57
27144;BME280;14672;50.250;8.312;2023-10-09T04:40:08;99251.63;;;16.20;75.70
27144;BME280;14672;50.250;8.312;2023-10-09T04:42:38;99244.84;;;16.09;75.45
27144;BME280;14672;50.250;8.312;2023-10-09T04:45:05;99251.75;;;16.02;75.99
27144;BME280;14672;50.250;8.312;2023-10-09T04:47:36;99252.75;;;15.99;75.73
27144;BME280;14672;50.250;8.312;2023-10-09T04:50:09;99255.41;;;16.03;76.09
27144;BME280;14672;50.250;8.312;2023-10-09T04:52:44;99248.41;;;16.04;75.58
27144;BME280;14672;50.250;8.312;2023-10-09T04:55:10;99251.09;;;16.07;75.82
27144;BME280;14672;50.250;8.312;2023-10-09T04:57:41;99246.16;;;16.08;75.93
27144;BME280;14672;50.250;8.312;2023-10-09T05:00:17;99246.78;;;16.12;76.18
27144;BME280;14672;50.250;8.312;2023-10-09T05:02:54;99242.31;;;16.11;75.23
27144;BME280;14672;50.250;8.312;2023-10-09T05:05:28;99242.31;;;16.11;75.20
27144;BME280;14672;50.250;8.312;2023-10-09T05:08:17;99237.56;;;16.08;75.73
27144;BME280;14672;50.250;8.312;2023-10-09T05:10:57;99241.22;;;16.08;75.79
27144;BME280;14672;50.250;8.312;2023-10-09T05:13:37;99242.69;;;16.04;76.05
27144;BME280;14672;50.250;8.312;2023-10-09T05:18:33;99237.84;;;16.10;75.89
27144;BME280;14672;50.250;8.312;2023-10-09T05:21:08;99253.16;;;16.07;75.46
27144;BME280;14672;50.250;8.312;2023-10-09T05:23:53;99245.56;;;16.04;75.86
27144;BME280;14672;50.250;8.312;2023-10-09T05:26:44;99241.09;;;16.03;75.92
27144;BME280;14672;50.250;8.312;2023-10-09T05:29:20;99248.59;;;16.00;76.32
27144;BME280;14672;50.250;8.312;2023-10-09T05:34:43;99243.28;;;16.08;75.94
27144;BME280;14672;50.250;8.312;2023-10-09T05:37:34;99255.03;;;16.10;75.84
27144;BME280;14672;50.250;8.312;2023-10-09T05:40:06;99261.16;;;16.03;75.72
27144;BME280;14672;50.250;8.312;2023-10-09T05:42:48;99252.19;;;16.10;75.77
27144;BME280;14672;50.250;8.312;2023-10-09T05:45:23;99246.44;;;16.10;75.76
27144;BME280;14672;50.250;8.312;2023-10-09T05:48:07;99251.19;;;16.13;75.99
27144;BME280;14672;50.250;8.312;2023-10-09T05:50:39;99248.53;;;16.09;76.28
27144;BME280;14672;50.250;8.312;2023-10-09T05:53:25;99247.06;;;16.14;75.34
27144;BME280;14672;50.250;8.312;2023-10-09T05:56:10;99251.88;;;16.08;75.76
27144;BME280;14672;50.250;8.312;2023-10-09T05:58:54;99257.31;;;16.06;76.63
27144;BME280;14672;50.250;8.312;2023-10-09T06:01:38;99247.44;;;16.07;76.39
27144;BME280;14672;50.250;8.312;2023-10-09T06:04:22;99254.38;;;16.15;75.91
27144;BME280;14672;50.250;8.312;2023-10-09T06:07:00;99264.44;;;16.10;76.35
27144;BME280;14672;50.250;8.312;2023-10-09T06:09:36;99264.31;;;16.05;76.75
27144;BME280;14672;50.250;8.312;2023-10-09T06:12:21;99267.03;;;16.08;76.64
27144;BME280;14672;50.250;8.312;2023-10-09T06:15:00;99257.34;;;16.20;76.05
27144;BME280;14672;50.250;8.312;2023-10-09T06:17:46;99256.78;;;16.16;76.17
27144;BME280;14672;50.250;8.312;2023-10-09T06:20:25;99259.28;;;16.23;76.02
27144;BME280;14672;50.250;8.312;2023-10-09T06:23:26;99261.81;;;16.21;76.50
27144;BME280;14672;50.250;8.312;2023-10-09T06:26:12;99248.47;;;16.18;76.34
27144;BME280;14672;50.250;8.312;2023-10-09T06:28:50;99249.50;;;16.30;76.16
27144;BME280;14672;50.250;8.312;2023-10-09T06:31:37;99247.00;;;16.23;77.07
27144;BME280;14672;50.250;8.312;2023-10-09T06:34:38;99241.09;;;16.26;77.03
27144;BME280;14672;50.250;8.312;2023-10-09T06:37:10;99242.50;;;16.31;76.72
27144;BME280;14672;50.250;8.312;2023-10-09T06:40:00;99254.81;;;16.22;77.23
27144;BME280;14672;50.250;8.312;2023-10-09T06:43:06;99250.47;;;16.27;77.01
27144;BME280;14672;50.250;8.312;2023-10-09T06:45:57;99257.91;;;16.33;76.94
27144;BME280;14672;50.250;8.312;2023-10-09T06:48:42;99257.25;;;16.38;77.43
27144;BME280;14672;50.250;8.312;2023-10-09T06:51:12;99266.47;;;16.42;77.09
27144;BME280;14672;50.250;8.312;2023-10-09T06:53:52;99263.09;;;16.44;77.30
27144;BME280;14672;50.250;8.312;2023-10-09T06:56:24;99267.34;;;16.49;77.76
27144;BME280;14672;50.250;8.312;2023-10-09T07:01:24;99265.59;;;16.51;77.09
27144;BME280;14672;50.250;8.312;2023-10-09T07:03:57;99262.41;;;16.49;77.69
27144;BME280;14672;50.250;8.312;2023-10-09T07:06:36;99260.47;;;16.55;78.06
27144;BME280;14672;50.250;8.312;2023-10-09T07:09:02;99268.75;;;16.53;78.18
27144;BME280;14672;50.250;8.312;2023-10-09T07:11:44;99275.13;;;16.57;78.29
27144;BME280;14672;50.250;8.312;2023-10-09T07:14:23;99265.84;;;16.62;78.41
27144;BME280;14672;50.250;8.312;2023-10-09T07:17:03;99275.19;;;16.72;78.55
27144;BME280;14672;50.250;8.312;2023-10-09T07:19:43;99279.44;;;16.76;77.76
27144;BME280;14672;50.250;8.312;2023-10-09T07:22:09;99281.34;;;16.79;78.16
27144;BME280;14672;50.250;8.312;2023-10-09T07:24:56;99280.63;;;16.84;78.56
27144;BME280;14672;50.250;8.312;2023-10-09T07:27:23;99278.47;;;16.79;79.05
27144;BME280;14672;50.250;8.312;2023-10-09T07:30:25;99293.31;;;16.92;78.68
27144;BME280;14672;50.250;8.312;2023-10-09T07:35:45;99293.72;;;17.00;78.21
27144;BME280;14672;50.250;8.312;2023-10-09T07:38:18;99292.38;;;17.10;78.36
27144;BME280;14672;50.250;8.312;2023-10-09T07:41:02;99292.44;;;17.16;78.39
27144;BME280;14672;50.250;8.312;2023-10-09T07:43:34;99289.41;;;17.19;79.01
27144;BME280;14672;50.250;8.312;2023-10-09T07:46:14;99292.88;;;17.23;79.11
27144;BME280;14672;50.250;8.312;2023-10-09T07:49:05;99290.69;;;17.33;79.04
27144;BME280;14672;50.250;8.312;2023-10-09T07:51:46;99287.41;;;17.40;78.65
27144;BME280;14672;50.250;8.312;2023-10-09T07:54:13;99291.38;;;17.43;79.13
27144;BME280;14672;50.250;8.312;2023-10-09T07:56:58;99295.66;;;17.47;79.49
27144;BME280;14672;50.250;8.312;2023-10-09T07:59:35;99286.09;;;17.56;79.08
27144;BME280;14672;50.250;8.312;2023-10-09T08:02:07;99289.44;;;17.63;79.56
27144;BME280;14672;50.250;8.312;2023-10-09T08:04:39;99286.16;;;17.70;79.12
27144;BME280;14672;50.250;8.312;2023-10-09T08:07:15;99290.09;;;17.73;79.40
27144;BME280;14672;50.250;8.312;2023-10-09T08:10:04;99291.00;;;17.79;79.22
27144;BME280;14672;50.250;8.312;2023-10-09T08:12:40;99298.09;;;17.83;78.87
27144;BME280;14672;50.250;8.312;2023-10-09T08:15:16;99309.59;;;17.83;79.51
27144;BME280;14672;50.250;8.312;2023-10-09T08:17:56;99305.22;;;17.88;79.55
27144;BME280;14672;50.250;8.312;2023-10-09T08:20:26;99309.22;;;17.91;79.48
27144;BME280;14672;50.250;8.312;2023-10-09T08:22:53;99306.91;;;17.95;79.09
27144;BME280;14672;50.250;8.312;2023-10-09T08:25:24;99325.56;;;17.99;79.42
27144;BME280;14672;50.250;8.312;2023-10-09T08:28:03;99319.88;;;18.05;79.22
27144;BME280;14672;50.250;8.312;2023-10-09T08:30:58;99320.19;;;18.07;79.85
27144;BME280;14672;50.250;8.312;2023-10-09T08:33:45;99317.47;;;18.18;78.44
27144;BME280;14672;50.250;8.312;2023-10-09T08:36:11;99318.31;;;18.24;79.11
27144;BME280;14672;50.250;8.312;2023-10-09T08:38:40;99318.91;;;18.28;78.43
27144;BME280;14672;50.250;8.312;2023-10-09T08:41:11;99307.75;;;18.36;77.98
27144;BME280;14672;50.250;8.312;2023-10-09T08:46:28;99307.16;;;18.46;77.35
27144;BME280;14672;50.250;8.312;2023-10-09T08:48:56;99318.25;;;18.53;77.44
27144;BME280;14672;50.250;8.312;2023-10-09T08:51:26;99319.41;;;18.61;77.35
27144;BME280;14672;50.250;8.312;2023-10-09T08:53:53;99322.38;;;18.67;77.26
27144;BME280;14672;50.250;8.312;2023-10-09T08:56:21;99317.97;;;18.71;76.30
27144;BME280;14672;50.250;8.312;2023-10-09T08:58:58;99321.41;;;18.75;77.16
27144;BME280;14672;50.250;8.312;2023-10-09T09:01:25;99327.53;;;18.83;76.97
27144;BME280;14672;50.250;8.312;2023-10-09T09:03:53;99325.44;;;18.84;76.86
27144;BME280;14672;50.250;8.312;2023-10-09T09:06:21;99321.56;;;18.87;76.25
27144;BME280;14672;50.250;8.312;2023-10-09T09:08:50;99318.25;;;18.94;75.47
27144;BME280;14672;50.250;8.312;2023-10-09T09:11:20;99318.03;;;18.97;76.49
27144;BME280;14672;50.250;8.312;2023-10-09T09:16:33;99337.16;;;19.00;76.73
27144;BME280;14672;50.250;8.312;2023-10-09T09:19:06;99329.91;;;19.05;77.45
27144;BME280;14672;50.250;8.312;2023-10-09T09:21:41;99332.06;;;19.10;77.94
27144;BME280;14672;50.250;8.312;2023-10-09T09:24:13;99319.28;;;19.16;78.26
27144;BME280;14672;50.250;8.312;2023-10-09T09:27:01;99330.59;;;19.20;78.61
27144;BME280;14672;50.250;8.312;2023-10-09T09:29:44;99329.56;;;19.23;78.45
27144;BME280;14672;50.250;8.312;2023-10-09T09:32:31;99325.16;;;19.28;78.56
27144;BME280;14672;50.250;8.312;2023-10-09T09:35:04;99330.19;;;19.33;77.83
27144;BME280;14672;50.250;8.312;2023-10-09T09:37:34;99325.50;;;19.35;78.01
27144;BME280;14672;50.250;8.312;2023-10-09T09:40:20;99345.28;;;19.42;77.22
27144;BME280;14672;50.250;8.312;2023-10-09T09:43:01;99348.19;;;19.48;77.44
27144;BME280;14672;50.250;8.312;2023-10-09T09:45:38;99354.81;;;19.54;77.72
27144;BME280;14672;50.250;8.312;2023-10-09T09:48:08;99365.31;;;19.57;76.48
27144;BME280;14672;50.250;8.312;2023-10-09T09:50:40;99360.63;;;19.59;76.79
27144;BME280;14672;50.250;8.312;2023-10-09T09:53:14;99352.28;;;19.61;77.48
27144;BME280;14672;50.250;8.312;2023-10-09T09:55:52;99341.00;;;19.63;77.91
27144;BME280;14672;50.250;8.312;2023-10-09T09:58:22;99324.50;;;19.64;77.60
27144;BME280;14672;50.250;8.312;2023-10-09T10:00:56;99340.78;;;19.67;77.60
27144;BME280;14672;50.250;8.312;2023-10-09T10:03:37;99332.19;;;19.73;77.78
27144;BME280;14672;50.250;8.312;2023-10-09T10:06:05;99328.56;;;19.78;77.60
27144;BME280;14672;50.250;8.312;2023-10-09T10:08:36;99333.81;;;19.79;77.19
27144;BME280;14672;50.250;8.312;2023-10-09T10:11:05;99330.69;;;19.83;76.59
27144;BME280;14672;50.250;8.312;2023-10-09T10:16:10;99331.03;;;19.90;75.37
27144;BME280;14672;50.250;8.312;2023-10-09T10:19:02;99322.97;;;19.94;75.24
27144;BME280;14672;50.250;8.312;2023-10-09T10:21:44;99343.69;;;19.98;75.29
27144;BME280;14672;50.250;8.312;2023-10-09T10:27:19;99334.16;;;20.18;74.29
27144;BME280;14672;50.250;8.312;2023-10-09T10:32:55;99273.31;;;20.27;71.38
27144;BME280;14672;50.250;8.312;2023-10-09T10:35:38;99280.53;;;20.43;71.29
27144;BME280;14672;50.250;8.312;2023-10-09T10:38:29;99292.16;;;20.54;72.30
27144;BME280;14672;50.250;8.312;2023-10-09T10:41:19;99275.38;;;20.58;70.97
27144;BME280;14672;50.250;8.312;2023-10-09T10:43:48;99279.59;;;20.68;68.52
27144;BME280;14672;50.250;8.312;2023-10-09T10:46:22;99268.34;;;20.76;67.83
27144;BME280;14672;50.250;8.312;2023-10-09T10:49:07;99273.63;;;20.83;66.24
27144;BME280;14672;50.250;8.312;2023-10-09T10:51:42;99266.03;;;20.91;65.67
27144;BME280;14672;50.250;8.312;2023-10-09T10:54:25;99264.22;;;20.99;66.99
27144;BME280;14672;50.250;8.312;2023-10-09T10:56:57;99245.59;;;21.05;64.11
27144;BME280;14672;50.250;8.312;2023-10-09T10:59:23;99261.94;;;21.20;63.96
27144;BME280;14672;50.250;8.312;2023-10-09T11:01:53;99245.16;;;21.29;62.52
27144;BME280;14672;50.250;8.312;2023-10-09T11:04:24;99249.09;;;21.37;63.19
27144;BME280;14672;50.250;8.312;2023-10-09T11:06:57;99255.13;;;21.50;62.37
27144;BME280;14672;50.250;8.312;2023-10-09T11:09:26;99252.28;;;21.62;62.09
27144;BME280;14672;50.250;8.312;2023-10-09T11:12:05;99247.53;;;21.59;60.46
27144;BME280;14672;50.250;8.312;2023-10-09T11:14:50;99246.72;;;21.75;60.85
27144;BME280;14672;50.250;8.312;2023-10-09T11:17:45;99238.84;;;21.81;59.72
27144;BME280;14672;50.250;8.312;2023-10-09T11:20:12;99253.31;;;21.81;59.31
27144;BME280;14672;50.250;8.312;2023-10-09T11:22:52;99248.81;;;21.91;56.92
27144;BME280;14672;50.250;8.312;2023-10-09T11:25:38;99248.03;;;22.01;54.14
27144;BME280;14672;50.250;8.312;2023-10-09T11:28:22;99239.88;;;22.11;54.71
27144;BME280;14672;50.250;8.312;2023-10-09T11:31:09;99237.53;;;22.04;54.03
27144;BME280;14672;50.250;8.312;2023-10-09T11:33:51;99231.19;;;22.17;52.87
27144;BME280;14672;50.250;8.312;2023-10-09T11:36:22;99218.03;;;22.21;53.33
27144;BME280;14672;50.250;8.312;2023-10-09T11:39:03;99217.72;;;22.30;53.75
27144;BME280;14672;50.250;8.312;2023-10-09T11:41:47;99212.16;;;22.43;53.46
27144;BME280;14672;50.250;8.312;2023-10-09T11:44:15;99215.56;;;22.47;53.11
27144;BME280;14672;50.250;8.312;2023-10-09T11:47:03;99201.28;;;22.61;51.48
27144;BME280;14672;50.250;8.312;2023-10-09T11:49:54;99205.97;;;22.80;52.29
27144;BME280;14672;50.250;8.312;2023-10-09T11:52:56;99198.31;;;22.77;51.05
27144;BME280;14672;50.250;8.312;2023-10-09T11:55:36;99186.91;;;22.90;51.05
27144;BME280;14672;50.250;8.312;2023-10-09T11:58:02;99180.31;;;22.96;52.34
27144;BME280;14672;50.250;8.312;2023-10-09T12:00:31;99185.81;;;22.99;52.78
27144;BME280;14672;50.250;8.312;2023-10-09T12:03:10;99192.69;;;22.96;51.75
27144;BME280;14672;50.250;8.312;2023-10-09T12:05:36;99186.84;;;23.02;51.69
27144;BME280;14672;50.250;8.312;2023-10-09T12:08:04;99187.34;;;23.06;51.81
27144;BME280;14672;50.250;8.312;2023-10-09T12:10:34;99190.88;;;22.93;51.52
27144;BME280;14672;50.250;8.312;2023-10-09T12:13:05;99186.38;;;22.92;52.21
27144;BME280;14672;50.250;8.312;2023-10-09T12:15:32;99193.72;;;22.99;54.06
27144;BME280;14672;50.250;8.312;2023-10-09T12:18:07;99185.06;;;22.93;55.49
27144;BME280;14672;50.250;8.312;2023-10-09T12:20:42;99182.88;;;23.05;55.50
27144;BME280;14672;50.250;8.312;2023-10-09T12:23:08;99179.63;;;23.14;56.00
27144;BME280;14672;50.250;8.312;2023-10-09T12:25:34;99185.53;;;23.03;55.96
27144;BME280;14672;50.250;8.312;2023-10-09T12:28:04;99187.31;;;23.11;56.04
27144;BME280;14672;50.250;8.312;2023-10-09T12:30:30;99196.78;;;23.12;56.79
27144;BME280;14672;50.250;8.312;2023-10-09T12:32:57;99183.34;;;23.14;57.78
27144;BME280;14672;50.250;8.312;2023-10-09T12:35:26;99185.94;;;23.18;58.24
27144;BME280;14672;50.250;8.312;2023-10-09T12:37:54;99189.63;;;23.18;57.97
27144;BME280;14672;50.250;8.312;2023-10-09T12:40:24;99189.72;;;23.07;57.70
27144;BME280;14672;50.250;8.312;2023-10-09T12:42:51;99194.72;;;23.07;58.12
27144;BME280;14672;50.250;8.312;2023-10-09T12:45:19;99190.22;;;23.11;57.82
27144;BME280;14672;50.250;8.312;2023-10-09T12:47:54;99192.03;;;23.14;58.29
27144;BME280;14672;50.250;8.312;2023-10-09T12:50:34;99191.28;;;23.08;58.21
27144;BME280;14672;50.250;8.312;2023-10-09T12:53:01;99190.22;;;23.11;58.15
27144;BME280;14672;50.250;8.312;2023-10-09T12:58:03;99179.41;;;23.12;58.51
27144;BME280;14672;50.250;8.312;2023-10-09T13:00:37;99192.03;;;23.14;58.50
27144;BME280;14672;50.250;8.312;2023-10-09T13:03:08;99189.38;;;23.16;58.15
27144;BME280;14672;50.250;8.312;2023-10-09T13:05:50;99183.81;;;23.18;58.65
27144;BME280;14672;50.250;8.312;2023-10-09T13:08:27;99186.72;;;23.18;58.55
27144;BME280;14672;50.250;8.312;2023-10-09T13:11:05;99179.13;;;23.15;58.38
27144;BME280;14672;50.250;8.312;2023-10-09T13:13:40;99185.00;;;23.04;58.32
27144;BME280;14672;50.250;8.312;2023-10-09T13:16:30;99178.31;;;23.15;58.52
27144;BME280;14672;50.250;8.312;2023-10-09T13:18:57;99179.13;;;23.15;58.45
27144;BME280;14672;50.250;8.312;2023-10-09T13:21:26;99170.91;;;23.19;58.33
27144;BME280;14672;50.250;8.312;2023-10-09T13:23:53;99174.03;;;23.21;58.32
27144;BME280;14672;50.250;8.312;2023-10-09T13:26:23;99175.13;;;23.18;57.79
27144;BME280;14672;50.250;8.312;2023-10-09T13:29:03;99169.59;;;23.20;57.77
27144;BME280;14672;50.250;8.312;2023-10-09T13:31:29;99167.22;;;23.19;58.09
27144;BME280;14672;50.250;8.312;2023-10-09T13:33:59;99177.81;;;23.11;58.00
27144;BME280;14672;50.250;8.312;2023-10-09T13:36:27;99170.91;;;23.19;57.82
27144;BME280;14672;50.250;8.312;2023-10-09T13:41:45;99173.81;;;23.19;58.37
27144;BME280;14672;50.250;8.312;2023-10-09T13:44:14;99177.50;;;23.20;58.39
27144;BME280;14672;50.250;8.312;2023-10-09T13:46:40;99176.75;;;23.14;58.27
27144;BME280;14672;50.250;8.312;2023-10-09T13:49:10;99169.34;;;23.18;58.66
27144;BME280;14672;50.250;8.312;2023-10-09T13:51:41;99165.44;;;23.10;58.37
27144;BME280;14672;50.250;8.312;2023-10-09T13:54:14;99157.50;;;23.16;58.33
27144;BME280;14672;50.250;8.312;2023-10-09T13:56:50;99162.75;;;23.18;58.72
27144;BME280;14672;50.250;8.312;2023-10-09T13:59:22;99159.06;;;23.17;58.80
27144;BME280;14672;50.250;8.312;2023-10-09T14:01:54;99164.59;;;23.21;58.62
27144;BME280;14672;50.250;8.312;2023-10-09T14:04:23;99181.97;;;23.21;58.75
27144;BME280;14672;50.250;8.312;2023-10-09T14:06:52;99174.59;;;23.20;58.61
27144;BME280;14672;50.250;8.312;2023-10-09T14:09:24;99176.72;;;23.19;59.36
27144;BME280;14672;50.250;8.312;2023-10-09T14:12:10;99175.41;;;23.20;59.11